x

Settlement Point, Gbi (spgf1) Weather Station

12:00am - Sat 18th Apr 2015 All times are EDT. -4 hours from GMT.

  • Wind
    8mph, 9mph gusts
  • Air Temp 78°f
  • Sea Pressure 1017.2mb
  • Settlement Point, Gbi
  • Settlement Point, Gbi

More Historic Weather Station data

Upgrade to MSW Pro to gain access to the past 30 days of data for over 8000 Wavebouys and Weather Stations around the globe.

Join Pro

Comparision Forecast

View Surf forecast
   
Sat 04/18 12:00am 8 9 mph 1017.2mb 78f
Fri 04/17 11:00pm 8 10 mph 1017.6mb 78f
10:00pm 5 6 mph 1017.2mb 78f
9:00pm 5 7 mph 1016.7mb 78f
8:00pm 7 9 mph 1016.5mb 79f
7:00pm 9 10 mph 1016.1mb 80f
6:00pm 7 8 mph 1016.6mb 80f
5:00pm 7 9 mph 1016.6mb 80f
4:00pm 10 11 mph 1016.6mb 80f
3:00pm 13 14 mph 1017.6mb 80f
2:00pm 11 13 mph 1018.4mb 80f
1:00pm 13 14 mph 1018.8mb 80f
12:00pm 14 15 mph 1019.6mb 79f
11:00am 11 13 mph 1019.6mb 79f
10:00am 13 14 mph 1019.6mb 79f
9:00am 10 11 mph 1019.4mb 79f
8:00am 9 10 mph 1019.2mb 79f
7:00am 8 9 mph 1018.4mb 78f
6:00am 9 13 mph 1017.9mb 78f
5:00am 8 9 mph 1017.8mb 78f
4:00am 10 13 mph 1017.7mb 78f
3:00am 8 9 mph 1018mb 77f
2:00am 8 9 mph 1018.7mb 78f
1:00am 11 13 mph 1019mb 77f
12:00am 7 9 mph 1019.9mb 77f
Thu 04/16 11:00pm 8 9 mph 1020.2mb 78f
10:00pm 7 9 mph 1019.9mb 77f
9:00pm 8 10 mph 1019mb 78f
8:00pm 9 11 mph 1018.4mb 79f
7:00pm 8 10 mph 1018.2mb 80f
6:00pm 8 11 mph 1018.2mb 80f
5:00pm 9 11 mph 1018.3mb 80f
4:00pm 8 9 mph 1018.9mb 80f
3:00pm 11 14 mph 1019.6mb 80f
2:00pm 10 11 mph 1019.9mb 80f
1:00pm 11 13 mph 1020.3mb 80f
12:00pm 11 14 mph 1021mb 80f
11:00am 9 11 mph 1021mb 80f
10:00am 11 13 mph 1020.8mb 80f
9:00am 11 14 mph 1020.2mb 79f
8:00am 10 14 mph 1019.9mb 78f
7:00am 7 9 mph 1018.9mb 76f
6:00am 7 9 mph 1018.8mb 76f
5:00am 7 8 mph 1018.7mb 76f
4:00am 6 7 mph 1018.6mb 76f
3:00am 7 8 mph 1018.9mb 76f
2:00am 6 7 mph 1019.3mb 77f
1:00am 6 7 mph 1019.8mb 77f
12:00am 9 13 mph 1019.7mb 77f
Wed 04/15 11:00pm 8 9 mph 1020.4mb 77f
10:00pm 9 11 mph 1020.3mb 78f
9:00pm 8 10 mph 1019.9mb 78f
8:00pm 9 11 mph 1018.9mb 78f
7:00pm 8 10 mph 1018.4mb 79f
6:00pm 6 8 mph 1018.5mb 80f
5:00pm 8 10 mph 1018.5mb 80f
4:00pm 11 14 mph 1018.8mb 80f
3:00pm 10 13 mph 1019.3mb 81f
2:00pm 11 13 mph 1019.7mb 80f
1:00pm 11 14 mph 1020.3mb 80f
12:00pm 13 14 mph 1020.9mb 80f
11:00am 10 11 mph 1021mb 80f
10:00am 11
mph
1020.8mb 79f
9:00am 7 8 mph 1020.6mb 79f
8:00am 7 8 mph 1020.2mb 78f
7:00am 6 7 mph 1019.4mb 76f
6:00am 6
mph
1018.9mb 76f
5:00am 7 8 mph 1018.5mb 75f
4:00am 9 10 mph 1018.4mb 76f
3:00am 9 11 mph 1018.8mb 75f
2:00am 8 10 mph 1019.2mb 75f
1:00am 9 11 mph 1020.2mb 76f
12:00am 9 10 mph 1020.5mb 76f
Tue 04/14 11:00pm 9 11 mph 1020.7mb 76f
10:00pm 8 9 mph 1020.5mb 76f
9:00pm 7 8 mph 1020mb 77f
8:00pm 6 8 mph 1019.5mb 78f
7:00pm 6 8 mph 1019.5mb 79f
6:00pm 9
mph
1019.4mb 79f
5:00pm 9 10 mph 1019.8mb 79f
4:00pm 10 11 mph 1020.3mb 79f
3:00pm 11 13 mph 1021mb 79f
2:00pm 11 13 mph 1021.5mb 80f
1:00pm 13 16 mph 1022mb 80f
12:00pm 14 16 mph 1022.7mb 79f
11:00am 11 15 mph 1023mb 80f
10:00am 9 11 mph 1023mb 78f
9:00am 11 15 mph 1022.5mb 78f
8:00am 9 11 mph 1022.2mb 77f
7:00am 8 9 mph 1021.7mb 75f
6:00am 9 10 mph 1020.9mb 75f